createdAt,value
2022-09-04T00:00:15.769Z,9.07
2022-09-04T00:03:07.641Z,7.40
2022-09-04T00:05:37.204Z,7.13
2022-09-04T00:08:31.269Z,7.50
2022-09-04T00:11:08.057Z,6.90
2022-09-04T00:13:43.637Z,7.00
2022-09-04T00:16:24.712Z,7.70
2022-09-04T00:19:22.432Z,8.43
2022-09-04T00:21:56.481Z,7.30
2022-09-04T00:24:31.271Z,8.07
2022-09-04T00:27:10.916Z,8.60
2022-09-04T00:29:45.070Z,10.33
2022-09-04T00:32:34.755Z,9.20
2022-09-04T00:35:07.961Z,11.07
2022-09-04T00:38:00.796Z,10.70
2022-09-04T00:40:34.280Z,9.87
2022-09-04T00:43:22.203Z,10.03
2022-09-04T00:46:13.257Z,9.90
2022-09-04T00:48:52.456Z,9.83
2022-09-04T00:51:30.995Z,10.73
2022-09-04T00:54:22.422Z,10.50
2022-09-04T00:57:29.491Z,10.43
2022-09-04T01:00:16.583Z,10.20
2022-09-04T01:03:08.487Z,10.63
2022-09-04T01:06:13.053Z,10.97
2022-09-04T01:08:46.975Z,10.07
2022-09-04T01:11:49.080Z,11.20
2022-09-04T01:14:26.331Z,10.67
2022-09-04T01:16:57.506Z,11.10
2022-09-04T01:19:42.574Z,12.40
2022-09-04T01:22:46.677Z,12.03
2022-09-04T01:25:21.152Z,11.53
2022-09-04T01:27:57.631Z,13.13
2022-09-04T01:30:25.792Z,11.43
2022-09-04T01:33:12.954Z,12.53
2022-09-04T01:35:53.321Z,13.00
2022-09-04T01:38:51.427Z,12.53
2022-09-04T01:41:54.538Z,13.43
2022-09-04T01:44:21.525Z,11.63
2022-09-04T01:47:05.120Z,16.27
2022-09-04T01:49:37.453Z,16.33
2022-09-04T01:52:16.416Z,14.00
2022-09-04T01:54:59.474Z,14.37
2022-09-04T01:57:35.552Z,15.93
2022-09-04T02:00:09.768Z,17.20
2022-09-04T02:03:09.065Z,17.10
2022-09-04T02:05:38.914Z,16.53
2022-09-04T02:08:14.970Z,18.27
2022-09-04T02:10:53.918Z,17.83
2022-09-04T02:13:53.883Z,19.03
2022-09-04T02:16:38.879Z,18.53
2022-09-04T02:19:17.821Z,19.03
2022-09-04T02:21:51.236Z,19.13
2022-09-04T02:24:28.929Z,19.80
2022-09-04T02:27:10.704Z,20.87
2022-09-04T02:29:48.710Z,22.17
2022-09-04T02:32:31.138Z,21.50
2022-09-04T02:35:03.131Z,21.20
2022-09-04T02:37:33.279Z,21.40
2022-09-04T02:40:32.842Z,22.03
2022-09-04T02:43:27.550Z,21.50
2022-09-04T02:46:15.166Z,23.03
2022-09-04T02:49:02.354Z,24.03
2022-09-04T02:51:47.895Z,28.17
2022-09-04T02:54:48.770Z,25.73
2022-09-04T02:57:39.565Z,28.33
2022-09-04T03:00:21.360Z,24.47
2022-09-04T03:03:07.129Z,28.23
2022-09-04T03:05:42.212Z,28.47
2022-09-04T03:08:18.374Z,28.67
2022-09-04T03:11:02.859Z,28.07
2022-09-04T03:14:00.009Z,33.33
2022-09-04T03:16:37.315Z,31.47
2022-09-04T03:19:28.114Z,30.60
2022-09-04T03:22:18.412Z,31.23
2022-09-04T03:25:12.601Z,28.57
2022-09-04T03:27:39.812Z,33.03
2022-09-04T03:30:09.264Z,35.57
2022-09-04T03:32:58.390Z,33.40
2022-09-04T03:35:37.878Z,33.43
2022-09-04T03:38:28.691Z,34.73
2022-09-04T03:41:39.072Z,33.53
2022-09-04T03:44:08.993Z,34.93
2022-09-04T03:47:07.793Z,35.63
2022-09-04T03:49:53.174Z,32.67
2022-09-04T03:52:41.051Z,36.83
2022-09-04T03:55:11.021Z,37.07
2022-09-04T03:58:10.222Z,36.03
2022-09-04T04:01:13.627Z,35.20
2022-09-04T04:04:04.200Z,35.33
2022-09-04T04:07:11.993Z,31.83
2022-09-04T04:10:03.467Z,36.47
2022-09-04T04:12:37.369Z,32.87
2022-09-04T04:15:10.388Z,32.80
2022-09-04T04:17:46.273Z,31.63
2022-09-04T04:20:31.680Z,33.57
2022-09-04T04:23:29.541Z,30.13
2022-09-04T04:26:11.848Z,33.47
2022-09-04T04:29:09.467Z,32.83
2022-09-04T04:32:09.213Z,31.03
2022-09-04T04:34:58.345Z,29.80
2022-09-04T04:37:31.691Z,29.83
2022-09-04T04:41:00.147Z,30.20
2022-09-04T04:43:33.897Z,27.93
2022-09-04T04:46:17.176Z,26.83
2022-09-04T04:49:16.199Z,28.70
2022-09-04T04:52:05.960Z,28.17
2022-09-04T04:55:09.747Z,28.70
2022-09-04T04:57:57.852Z,28.87
2022-09-04T05:00:34.023Z,26.83
2022-09-04T05:03:25.121Z,27.63
2022-09-04T05:05:56.069Z,29.53
2022-09-04T05:08:34.895Z,27.83
2022-09-04T05:11:10.768Z,29.73
2022-09-04T05:14:02.030Z,29.03
2022-09-04T05:16:59.992Z,30.80
2022-09-04T05:19:55.192Z,29.10
2022-09-04T05:22:34.549Z,33.20
2022-09-04T05:25:10.552Z,29.93
2022-09-04T05:28:02.004Z,30.00
2022-09-04T05:30:51.057Z,30.47
2022-09-04T05:33:55.769Z,29.60
2022-09-04T05:36:42.772Z,31.57
2022-09-04T05:39:13.354Z,30.90
2022-09-04T05:41:59.160Z,30.53
2022-09-04T05:45:04.171Z,31.90
2022-09-04T05:47:40.279Z,33.07
2022-09-04T05:50:25.587Z,33.87
2022-09-04T05:53:17.617Z,34.30
2022-09-04T05:56:21.424Z,31.67
2022-09-04T05:59:22.322Z,30.97
2022-09-04T06:01:52.203Z,33.17
2022-09-04T06:04:49.703Z,33.13
2022-09-04T06:07:46.232Z,34.97
2022-09-04T06:10:37.555Z,35.00
2022-09-04T06:13:38.015Z,32.97
2022-09-04T06:16:34.319Z,35.97
2022-09-04T06:19:02.198Z,33.47
2022-09-04T06:21:34.968Z,35.63
2022-09-04T06:24:16.959Z,31.37
2022-09-04T06:27:12.860Z,32.37
2022-09-04T06:30:07.147Z,33.00
2022-09-04T06:32:49.343Z,30.47
2022-09-04T06:35:33.087Z,33.97
2022-09-04T06:38:30.775Z,35.20
2022-09-04T06:41:25.906Z,34.03
2022-09-04T06:44:17.730Z,32.33
2022-09-04T06:46:59.600Z,33.77
2022-09-04T06:50:02.128Z,30.20
2022-09-04T06:52:48.577Z,33.17
2022-09-04T06:55:24.552Z,37.07
2022-09-04T06:58:03.479Z,31.90
2022-09-04T07:00:53.453Z,34.67
2022-09-04T07:04:07.942Z,35.10
2022-09-04T07:06:37.620Z,33.67
2022-09-04T07:09:23.233Z,34.47
2022-09-04T07:12:15.015Z,35.17
2022-09-04T07:14:59.956Z,34.33
2022-09-04T07:17:37.958Z,32.03
2022-09-04T07:20:18.255Z,32.97
2022-09-04T07:22:53.934Z,31.67
2022-09-04T07:25:35.970Z,31.20
2022-09-04T07:28:06.461Z,31.03
2022-09-04T07:30:50.196Z,27.77
2022-09-04T07:33:40.560Z,30.80
2022-09-04T07:36:33.036Z,27.60
2022-09-04T07:39:21.863Z,26.27
2022-09-04T07:41:56.114Z,25.77
2022-09-04T07:44:34.426Z,25.23
2022-09-04T07:47:30.128Z,25.17
2022-09-04T07:50:03.636Z,24.63
2022-09-04T07:52:47.015Z,23.70
2022-09-04T07:55:23.080Z,21.70
2022-09-04T07:58:38.823Z,22.53
2022-09-04T08:01:19.543Z,23.93
2022-09-04T08:03:53.943Z,23.77
2022-09-04T08:06:24.445Z,23.43
2022-09-04T08:09:22.064Z,22.10
2022-09-04T08:11:59.576Z,24.77
2022-09-04T08:14:31.933Z,22.37
2022-09-04T08:17:05.639Z,21.73
2022-09-04T08:20:12.762Z,24.63
2022-09-04T08:23:04.626Z,24.40
2022-09-04T08:25:46.553Z,23.00
2022-09-04T08:28:33.590Z,26.80
2022-09-04T08:31:12.237Z,24.60
2022-09-04T08:34:07.736Z,22.63
2022-09-04T08:36:52.000Z,24.48
2022-09-04T08:39:46.985Z,24.55
2022-09-04T08:42:54.975Z,23.88
2022-09-04T08:45:55.741Z,20.65
2022-09-04T08:48:44.264Z,18.67
2022-09-04T08:51:24.139Z,20.08
2022-09-04T08:53:50.996Z,19.88
2022-09-04T08:56:36.783Z,20.05
2022-09-04T08:59:22.507Z,21.40
2022-09-04T09:02:06.356Z,21.02
2022-09-04T09:04:48.937Z,16.08
2022-09-04T09:07:27.903Z,15.00
2022-09-04T09:10:36.236Z,14.18
2022-09-04T09:13:24.851Z,13.80
2022-09-04T09:16:25.873Z,15.07
2022-09-04T09:19:10.297Z,15.90
2022-09-04T09:22:28.003Z,15.57
2022-09-04T09:25:11.472Z,14.55
2022-09-04T09:27:57.086Z,15.60
2022-09-04T09:30:24.957Z,10.55
2022-09-04T09:33:19.636Z,17.08
2022-09-04T09:36:07.743Z,14.90
2022-09-04T09:38:59.457Z,11.63
2022-09-04T09:41:29.155Z,12.32
2022-09-04T09:44:08.115Z,13.15
2022-09-04T09:47:14.071Z,15.00
2022-09-04T09:49:53.722Z,11.02
2022-09-04T09:52:58.322Z,13.40
2022-09-04T09:55:57.208Z,14.02
2022-09-04T09:58:58.581Z,13.65
2022-09-04T10:01:34.517Z,10.00
2022-09-04T10:04:21.762Z,10.10
2022-09-04T10:07:10.748Z,9.45
2022-09-04T10:10:16.835Z,8.63
2022-09-04T10:13:08.510Z,9.52
2022-09-04T10:15:56.692Z,6.78
2022-09-04T10:18:47.851Z,7.50
2022-09-04T10:21:36.423Z,5.60
2022-09-04T10:24:25.931Z,6.20
2022-09-04T10:27:14.652Z,6.07
2022-09-04T10:30:06.069Z,6.97
2022-09-04T10:32:35.732Z,5.75
2022-09-04T10:35:22.077Z,4.90
2022-09-04T10:37:57.843Z,5.03
2022-09-04T10:40:59.793Z,4.72
2022-09-04T10:44:03.796Z,4.45
2022-09-04T10:46:36.849Z,4.60
2022-09-04T10:49:12.812Z,4.32
2022-09-04T10:51:45.748Z,4.45
2022-09-04T10:54:48.223Z,4.07
2022-09-04T10:58:10.701Z,3.80
2022-09-04T11:01:03.539Z,4.57
2022-09-04T11:03:44.510Z,5.63
2022-09-04T11:06:50.546Z,4.25
2022-09-04T11:09:45.142Z,4.70
2022-09-04T11:12:15.949Z,5.45
2022-09-04T11:15:35.379Z,6.18
2022-09-04T11:18:34.252Z,5.13
2022-09-04T11:21:27.303Z,4.35
2022-09-04T11:24:04.568Z,3.83
2022-09-04T11:27:10.037Z,3.80
2022-09-04T11:29:55.989Z,3.38
2022-09-04T11:32:34.807Z,3.85
2022-09-04T11:35:26.735Z,3.00
2022-09-04T11:38:13.789Z,2.83
2022-09-04T11:41:15.679Z,2.50
2022-09-04T11:43:48.427Z,2.38
2022-09-04T11:46:15.320Z,2.33
2022-09-04T11:49:34.361Z,2.25
2022-09-04T11:52:36.414Z,2.30
2022-09-04T11:55:26.330Z,2.35
2022-09-04T11:58:31.456Z,2.08
2022-09-04T12:01:27.015Z,1.80
2022-09-04T12:04:24.577Z,2.40
2022-09-04T12:07:14.221Z,1.92
2022-09-04T12:10:02.852Z,1.70
2022-09-04T12:12:35.560Z,1.77
2022-09-04T12:15:24.392Z,5.03
2022-09-04T12:18:23.487Z,2.33
2022-09-04T12:21:15.816Z,2.83
2022-09-04T12:24:06.974Z,1.60
2022-09-04T12:27:06.040Z,1.90
2022-09-04T12:29:33.071Z,2.45
2022-09-04T12:32:35.444Z,1.85
2022-09-04T12:35:33.810Z,1.75
2022-09-04T12:38:25.615Z,2.30
2022-09-04T12:41:23.234Z,1.63
2022-09-04T12:44:02.260Z,1.83
2022-09-04T12:46:48.856Z,2.10
2022-09-04T12:49:56.274Z,3.05
2022-09-04T12:52:51.592Z,1.88
2022-09-04T12:55:33.373Z,2.42
2022-09-04T12:58:36.759Z,2.25
2022-09-04T13:01:21.839Z,2.15
2022-09-04T13:04:19.672Z,1.60
2022-09-04T13:07:16.068Z,2.08
2022-09-04T13:10:02.423Z,2.35
2022-09-04T13:12:55.399Z,2.20
2022-09-04T13:15:45.364Z,1.88
2022-09-04T13:18:49.095Z,1.95
2022-09-04T13:21:50.005Z,2.17
2022-09-04T13:24:36.932Z,2.22
2022-09-04T13:27:26.923Z,2.13
2022-09-04T13:30:15.454Z,5.30
2022-09-04T13:32:51.146Z,5.13
2022-09-04T13:35:50.158Z,6.03
2022-09-04T13:38:29.250Z,4.07
2022-09-04T13:41:02.311Z,5.88
2022-09-04T13:43:41.272Z,5.80
2022-09-04T13:46:14.517Z,6.05
2022-09-04T13:48:43.544Z,7.80
2022-09-04T13:51:36.027Z,14.35
2022-09-04T13:54:19.191Z,11.63
2022-09-04T13:57:30.477Z,16.88
2022-09-04T14:00:02.876Z,14.88
2022-09-04T14:02:31.889Z,21.73
2022-09-04T14:05:19.002Z,18.58
2022-09-04T14:07:49.323Z,20.80
2022-09-04T14:10:41.956Z,24.95
2022-09-04T14:13:41.828Z,20.13
2022-09-04T14:16:15.022Z,22.20
2022-09-04T14:19:08.795Z,23.10
2022-09-04T14:22:00.316Z,21.58
2022-09-04T14:24:38.557Z,20.58
2022-09-04T14:27:28.264Z,21.38
2022-09-04T14:30:11.192Z,18.45
2022-09-04T14:32:47.422Z,22.95
2022-09-04T14:35:35.985Z,18.38
2022-09-04T14:38:21.751Z,18.55
2022-09-04T14:41:01.022Z,20.08
2022-09-04T14:44:03.883Z,26.08
2022-09-04T14:47:02.333Z,23.33
2022-09-04T14:49:31.902Z,19.90
2022-09-04T14:52:11.925Z,20.00
2022-09-04T14:54:43.861Z,18.42
2022-09-04T14:57:32.955Z,16.33
2022-09-04T15:00:17.467Z,18.80
2022-09-04T15:03:09.149Z,22.65
2022-09-04T15:05:56.898Z,21.58
2022-09-04T15:08:40.129Z,21.15
2022-09-04T15:11:30.451Z,24.20
2022-09-04T15:14:06.122Z,23.52
2022-09-04T15:16:49.767Z,26.85
2022-09-04T15:19:35.963Z,24.17
2022-09-04T15:22:12.744Z,25.50
2022-09-04T15:24:55.924Z,27.08
2022-09-04T15:27:28.607Z,30.02
2022-09-04T15:30:05.420Z,28.90
2022-09-04T15:32:36.921Z,24.70
2022-09-04T15:35:21.252Z,25.85
2022-09-04T15:37:52.321Z,24.15
2022-09-04T15:40:29.170Z,23.60
2022-09-04T15:43:17.759Z,26.70
2022-09-04T15:45:53.908Z,24.83
2022-09-04T15:48:39.371Z,27.33
2022-09-04T15:51:36.083Z,26.30
2022-09-04T15:54:12.109Z,24.63
2022-09-04T15:57:08.668Z,22.48
2022-09-04T15:59:47.463Z,25.38
2022-09-04T16:02:20.581Z,29.35
2022-09-04T16:04:57.671Z,24.88
2022-09-04T16:07:36.970Z,24.83
2022-09-04T16:10:16.690Z,24.25
2022-09-04T16:12:56.428Z,24.33
2022-09-04T16:15:34.761Z,25.10
2022-09-04T16:18:14.799Z,25.42
2022-09-04T16:20:46.915Z,28.90
2022-09-04T16:23:17.211Z,25.35
2022-09-04T16:25:54.895Z,26.15
2022-09-04T16:28:51.412Z,28.65
2022-09-04T16:31:36.905Z,30.98
2022-09-04T16:34:19.716Z,27.40
2022-09-04T16:36:56.676Z,27.75
2022-09-04T16:39:46.315Z,39.10
2022-09-04T16:42:32.490Z,29.38
2022-09-04T16:45:25.367Z,27.35
2022-09-04T16:48:21.937Z,25.98
2022-09-04T16:50:51.950Z,27.30
2022-09-04T16:53:52.615Z,27.98
2022-09-04T16:56:53.422Z,27.83
2022-09-04T16:59:43.818Z,32.07
2022-09-04T17:02:54.569Z,26.80
2022-09-04T17:05:28.582Z,30.10
2022-09-04T17:08:04.776Z,31.03
2022-09-04T17:10:42.979Z,28.77
2022-09-04T17:13:31.431Z,25.63
2022-09-04T17:16:18.085Z,23.50
2022-09-04T17:18:54.726Z,30.53
2022-09-04T17:27:19.244Z,26.57
2022-09-04T17:29:07.628Z,25.57
2022-09-04T17:29:12.644Z,26.80
2022-09-04T17:30:44.386Z,25.63
2022-09-04T17:37:37.010Z,26.23
2022-09-04T17:40:37.720Z,25.63
2022-09-04T17:40:54.447Z,25.33
2022-09-04T17:42:23.578Z,23.60
2022-09-04T17:45:09.690Z,26.87
2022-09-04T17:47:42.883Z,21.37
2022-09-04T17:50:16.588Z,23.83
2022-09-04T17:52:58.207Z,28.63
2022-09-04T17:55:27.967Z,22.47
2022-09-04T17:58:31.841Z,23.37
2022-09-04T18:01:27.467Z,24.60
2022-09-04T18:04:20.345Z,24.67
2022-09-04T18:07:21.877Z,21.83
2022-09-04T18:10:19.761Z,18.73
2022-09-04T18:12:50.924Z,18.37
2022-09-04T18:15:35.240Z,15.30
2022-09-04T18:18:26.847Z,14.47
2022-09-04T18:20:59.359Z,13.87
2022-09-04T18:24:12.577Z,13.07
2022-09-04T18:26:58.087Z,13.53
2022-09-04T18:30:45.609Z,15.17
2022-09-04T18:37:12.372Z,14.23
2022-09-04T18:37:17.226Z,13.53
2022-09-04T18:38:41.754Z,16.57
2022-09-04T18:44:47.920Z,20.87
2022-09-04T18:50:46.884Z,20.57
2022-09-04T18:50:47.017Z,21.70
2022-09-04T18:50:50.180Z,19.77
2022-09-04T18:53:14.171Z,19.53
2022-09-04T18:55:49.124Z,22.70
2022-09-04T18:58:31.140Z,21.40
2022-09-04T19:01:05.155Z,21.77
2022-09-04T19:03:41.005Z,23.37
2022-09-04T19:06:15.640Z,22.33
2022-09-04T19:08:50.786Z,22.90
2022-09-04T19:11:30.077Z,20.43
2022-09-04T19:14:15.510Z,21.40
2022-09-04T19:16:53.248Z,22.33
2022-09-04T19:19:32.123Z,20.97
2022-09-04T19:22:12.475Z,20.77
2022-09-04T19:24:54.763Z,20.43
2022-09-04T19:27:33.271Z,21.70
2022-09-04T19:30:18.014Z,18.80
2022-09-04T19:33:04.587Z,21.00
2022-09-04T19:35:59.781Z,23.43
2022-09-04T19:45:54.699Z,20.60
2022-09-04T19:46:05.894Z,20.87
2022-09-04T19:46:17.044Z,19.63
2022-09-04T19:47:32.073Z,23.63
2022-09-04T19:53:18.472Z,22.97
2022-09-04T19:53:44.902Z,22.60
2022-09-04T19:56:14.719Z,19.03
2022-09-04T19:58:52.583Z,22.90
2022-09-04T20:01:31.927Z,21.50
2022-09-04T20:04:06.796Z,26.07
2022-09-04T20:06:46.326Z,23.03
2022-09-04T20:09:17.112Z,23.07
2022-09-04T20:12:17.451Z,25.40
2022-09-04T20:15:04.241Z,25.83
2022-09-04T20:18:04.254Z,25.37
2022-09-04T20:20:47.869Z,22.97
2022-09-04T20:23:34.749Z,20.33
2022-09-04T20:26:32.213Z,20.17
2022-09-04T20:29:17.065Z,18.40
2022-09-04T20:31:49.627Z,18.87
2022-09-04T20:34:31.782Z,20.30
2022-09-04T20:37:22.690Z,20.63
2022-09-04T20:40:15.183Z,20.87
2022-09-04T20:43:03.281Z,19.93
2022-09-04T20:47:41.033Z,18.23
2022-09-04T20:52:45.833Z,16.80
2022-09-04T20:52:55.064Z,15.63
2022-09-04T20:54:59.331Z,15.23
2022-09-04T21:03:12.774Z,14.07
2022-09-04T21:03:18.898Z,13.83
2022-09-04T21:04:43.231Z,12.70
2022-09-04T21:07:29.370Z,11.47
2022-09-04T21:10:17.287Z,11.37
2022-09-04T21:13:13.702Z,9.80
2022-09-04T21:15:57.053Z,8.60
2022-09-04T21:18:27.256Z,8.40
2022-09-04T21:21:34.776Z,8.53
2022-09-04T21:24:15.878Z,8.07
2022-09-04T21:27:07.794Z,8.87
2022-09-04T21:30:09.982Z,8.33
2022-09-04T21:33:20.806Z,8.33
2022-09-04T21:35:53.720Z,9.30
2022-09-04T21:38:31.009Z,10.10
2022-09-04T21:41:17.708Z,10.33
2022-09-04T21:43:53.547Z,10.13
2022-09-04T21:46:52.470Z,10.40
2022-09-04T21:49:34.510Z,10.13
2022-09-04T21:52:22.963Z,10.23
2022-09-04T21:59:11.543Z,11.20
2022-09-04T22:02:40.457Z,12.30
2022-09-04T22:02:40.787Z,12.07
2022-09-04T22:04:13.585Z,13.57
2022-09-04T22:10:25.039Z,12.63
2022-09-04T22:13:38.175Z,12.83
2022-09-04T22:13:42.100Z,13.10
2022-09-04T22:16:16.782Z,12.67
2022-09-04T22:19:16.855Z,11.77
2022-09-04T22:22:04.998Z,11.67
2022-09-04T22:25:09.589Z,12.73
2022-09-04T22:28:07.933Z,12.77
2022-09-04T22:31:22.581Z,15.30
2022-09-04T22:34:27.571Z,15.13
2022-09-04T22:37:25.176Z,14.77
2022-09-04T22:40:18.527Z,14.57
2022-09-04T22:43:00.573Z,14.40
2022-09-04T22:45:30.474Z,12.40
2022-09-04T22:48:08.427Z,12.53
2022-09-04T22:50:50.173Z,11.73
2022-09-04T22:53:51.126Z,10.27
2022-09-04T22:56:44.396Z,10.67
2022-09-04T23:00:01.696Z,10.43
2022-09-04T23:03:08.855Z,9.93
2022-09-04T23:05:48.889Z,10.67
2022-09-04T23:12:20.740Z,9.70
2022-09-04T23:13:51.941Z,9.63
2022-09-04T23:15:08.435Z,7.83
2022-09-04T23:17:54.937Z,7.00
2022-09-04T23:26:51.093Z,5.37
2022-09-04T23:26:52.627Z,6.40
2022-09-04T23:27:06.340Z,5.17
2022-09-04T23:30:05.641Z,5.47
2022-09-04T23:32:55.628Z,4.50
2022-09-04T23:35:53.796Z,4.20
2022-09-04T23:38:35.971Z,4.33
2022-09-04T23:41:05.665Z,4.03
2022-09-04T23:44:04.426Z,4.40
2022-09-04T23:47:46.467Z,4.40
2022-09-04T23:50:35.843Z,3.87
2022-09-04T23:53:21.983Z,3.83
2022-09-04T23:55:54.762Z,3.97
2022-09-04T23:58:58.609Z,4.60
